createdAt,value
2022-11-28T00:00:49.404Z,0.79
2022-11-28T00:10:55.712Z,0.66
2022-11-28T00:21:07.490Z,1.18
2022-11-28T00:31:18.753Z,1.49
2022-11-28T00:41:28.187Z,1.49
2022-11-28T00:51:35.299Z,1.66
2022-11-28T01:01:44.986Z,1.81
2022-11-28T01:11:53.001Z,1.93
2022-11-28T01:21:59.235Z,2.03
2022-11-28T01:32:05.766Z,2.05
2022-11-28T01:42:20.483Z,2.12
2022-11-28T01:52:26.972Z,2.09
2022-11-28T02:02:43.625Z,1.99
2022-11-28T02:12:52.982Z,2.25
2022-11-28T02:23:19.260Z,2.20
2022-11-28T02:33:39.698Z,2.32
2022-11-28T02:44:13.379Z,2.23
2022-11-28T02:54:20.197Z,2.33
2022-11-28T03:04:46.621Z,2.35
2022-11-28T03:15:07.954Z,2.57
2022-11-28T03:25:30.276Z,2.55
2022-11-28T03:35:41.001Z,2.50
2022-11-28T03:45:51.165Z,2.53
2022-11-28T03:56:08.792Z,2.59
2022-11-28T04:06:25.184Z,2.62
2022-11-28T04:16:37.280Z,2.39
2022-11-28T04:26:47.722Z,2.44
2022-11-28T04:36:55.296Z,2.69
2022-11-28T04:47:01.626Z,2.74
2022-11-28T04:57:23.258Z,2.72
2022-11-28T05:07:29.557Z,2.67
2022-11-28T05:17:41.733Z,2.71
2022-11-28T05:27:48.830Z,2.77
2022-11-28T05:37:55.137Z,2.80
2022-11-28T05:48:01.369Z,2.79
2022-11-28T05:58:07.606Z,2.76
2022-11-28T06:08:13.899Z,2.84
2022-11-28T06:18:20.156Z,2.74
2022-11-28T06:28:26.466Z,2.69
2022-11-28T06:38:33.480Z,2.59
2022-11-28T06:48:40.465Z,2.66
2022-11-28T06:58:47.276Z,2.71
2022-11-28T07:08:55.057Z,2.68
2022-11-28T07:19:01.551Z,2.73
2022-11-28T07:29:08.645Z,2.79
2022-11-28T07:39:17.252Z,2.88
2022-11-28T07:49:23.532Z,2.92
2022-11-28T07:59:29.760Z,3.08
2022-11-28T08:09:36.094Z,2.98
2022-11-28T08:19:42.568Z,3.16
2022-11-28T08:29:53.322Z,3.20
2022-11-28T08:40:00.118Z,3.34
2022-11-28T08:50:07.116Z,3.31
2022-11-28T09:00:14.195Z,3.42
2022-11-28T09:10:20.775Z,3.43
2022-11-28T09:20:27.271Z,3.53
2022-11-28T09:30:34.664Z,3.67
2022-11-28T09:40:41.803Z,3.68
2022-11-28T09:50:48.213Z,3.88
2022-11-28T10:01:08.581Z,3.96
2022-11-28T10:11:26.091Z,4.20
2022-11-28T10:21:41.412Z,4.25
2022-11-28T10:31:48.517Z,4.44
2022-11-28T10:42:15.092Z,4.67
2022-11-28T10:52:52.926Z,4.66
2022-11-28T11:03:03.399Z,5.12
2022-11-28T11:13:20.797Z,5.45
2022-11-28T11:23:27.123Z,5.49
2022-11-28T11:33:36.586Z,5.94
2022-11-28T11:43:42.866Z,5.78
2022-11-28T11:53:49.177Z,5.83
2022-11-28T12:04:13.291Z,5.85
2022-11-28T12:14:31.194Z,5.82
2022-11-28T12:24:49.641Z,6.24
2022-11-28T12:35:07.525Z,6.14
2022-11-28T12:45:38.147Z,6.17
2022-11-28T12:56:00.292Z,6.49
2022-11-28T13:06:15.579Z,6.65
2022-11-28T13:16:27.386Z,6.46
2022-11-28T13:26:49.288Z,6.45
2022-11-28T13:47:36.515Z,6.64
2022-11-28T13:57:42.781Z,6.51
2022-11-28T14:07:49.177Z,6.35
2022-11-28T14:18:55.016Z,6.31
2022-11-28T14:28:49.875Z,6.14
2022-11-28T14:39:32.582Z,5.77
2022-11-28T14:49:38.851Z,5.41
2022-11-28T14:59:45.535Z,5.12
2022-11-28T15:10:07.480Z,4.90
2022-11-28T15:20:23.586Z,4.71
2022-11-28T15:30:29.853Z,4.37
2022-11-28T15:40:37.667Z,4.05
2022-11-28T15:50:51.343Z,3.86
2022-11-28T16:01:11.787Z,3.64
2022-11-28T16:11:20.928Z,3.44
2022-11-28T16:21:30.877Z,3.10
2022-11-28T16:31:37.169Z,2.92
2022-11-28T16:42:08.753Z,2.72
2022-11-28T16:52:22.996Z,2.53
2022-11-28T17:02:29.499Z,2.34
2022-11-28T17:12:38.162Z,2.27
2022-11-28T17:22:47.516Z,2.28
2022-11-28T17:32:53.852Z,1.97
2022-11-28T17:43:00.648Z,2.02
2022-11-28T17:53:06.861Z,1.89
2022-11-28T18:03:13.541Z,1.67
2022-11-28T18:13:20.341Z,1.51
2022-11-28T18:23:26.627Z,1.29
2022-11-28T18:33:35.383Z,1.35
2022-11-28T18:43:41.679Z,1.27
2022-11-28T18:53:48.999Z,1.16
2022-11-28T19:04:03.798Z,0.85
2022-11-28T19:14:14.058Z,0.84
2022-11-28T19:24:20.439Z,0.82
2022-11-28T19:34:27.015Z,0.80
2022-11-28T19:44:33.309Z,0.77
2022-11-28T19:54:39.642Z,0.81
2022-11-28T20:04:46.018Z,0.76
2022-11-28T20:14:52.288Z,0.62
2022-11-28T20:24:58.572Z,0.46
2022-11-28T20:35:06.043Z,0.10
2022-11-28T20:45:12.508Z,0.38
2022-11-28T20:55:18.836Z,0.32
2022-11-28T21:05:26.622Z,0.01
2022-11-28T21:15:32.988Z,0.01
2022-11-28T21:25:40.391Z,-0.10
2022-11-28T21:35:47.016Z,0.06
2022-11-28T21:45:53.245Z,-0.22
2022-11-28T21:56:03.720Z,-0.12
2022-11-28T22:06:21.722Z,-0.12
2022-11-28T22:16:29.805Z,-0.20
2022-11-28T22:26:36.149Z,-0.25
2022-11-28T22:36:42.441Z,-0.42
2022-11-28T22:46:48.767Z,-0.50
2022-11-28T22:56:56.349Z,-0.40
2022-11-28T23:07:02.670Z,-0.63
2022-11-28T23:17:08.941Z,-0.66
2022-11-28T23:27:15.247Z,-0.75
2022-11-28T23:37:21.862Z,-0.74
2022-11-28T23:47:28.124Z,-0.88
2022-11-28T23:57:34.430Z,-1.04
